createdAt,value
2023-04-30T00:01:09.403Z,28.00
2023-04-30T00:11:09.563Z,25.00
2023-04-30T00:21:09.353Z,21.00
2023-04-30T00:31:09.256Z,24.00
2023-04-30T00:41:09.185Z,19.00
2023-04-30T00:51:09.287Z,23.00
2023-04-30T01:01:09.345Z,25.00
2023-04-30T01:11:09.259Z,19.00
2023-04-30T01:21:09.169Z,28.00
2023-04-30T01:31:09.332Z,47.00
2023-04-30T01:41:09.211Z,19.00
2023-04-30T01:51:09.209Z,19.00
2023-04-30T02:01:09.377Z,22.00
2023-04-30T02:11:09.701Z,23.00
2023-04-30T02:21:09.453Z,24.00
2023-04-30T02:31:10.187Z,27.00
2023-04-30T02:41:09.353Z,21.00
2023-04-30T02:51:09.627Z,25.00
2023-04-30T03:01:09.353Z,27.00
2023-04-30T03:11:09.236Z,32.00
2023-04-30T03:21:09.173Z,22.00
2023-04-30T03:31:09.327Z,30.00
2023-04-30T03:41:09.203Z,31.00
2023-04-30T03:51:09.188Z,30.00
2023-04-30T04:01:09.442Z,21.00
2023-04-30T04:11:09.179Z,24.00
2023-04-30T04:21:09.348Z,25.00
2023-04-30T04:31:09.219Z,26.00
2023-04-30T04:41:09.215Z,28.00
2023-04-30T04:51:09.348Z,33.00
2023-04-30T05:01:09.203Z,32.00
2023-04-30T05:11:09.606Z,37.00
2023-04-30T05:21:09.206Z,35.00
2023-04-30T05:31:09.296Z,41.00
2023-04-30T05:41:09.244Z,39.00
2023-04-30T05:51:09.411Z,31.00
2023-04-30T06:01:09.283Z,36.00
2023-04-30T06:11:09.192Z,35.00
2023-04-30T06:21:09.491Z,34.00
2023-04-30T06:31:09.309Z,43.00
2023-04-30T06:41:09.221Z,30.00
2023-04-30T06:51:10.895Z,31.00
2023-04-30T07:01:09.250Z,27.00
2023-04-30T07:11:09.333Z,29.00
2023-04-30T07:21:09.336Z,27.00
2023-04-30T07:31:09.863Z,36.00
2023-04-30T07:41:09.373Z,20.00
2023-04-30T07:51:09.249Z,27.00
2023-04-30T08:01:09.316Z,21.00
2023-04-30T08:11:09.885Z,29.00
2023-04-30T08:21:09.266Z,17.00
2023-04-30T08:31:09.231Z,16.00
2023-04-30T08:41:09.264Z,22.00
2023-04-30T08:51:09.454Z,21.00
2023-04-30T09:01:09.249Z,15.00
2023-04-30T09:11:09.349Z,28.00
2023-04-30T09:21:09.276Z,20.00
2023-04-30T09:31:09.248Z,19.00
2023-04-30T09:41:09.706Z,21.00
2023-04-30T09:51:09.251Z,15.00
2023-04-30T10:01:09.258Z,19.00
2023-04-30T10:11:09.319Z,14.00
2023-04-30T10:21:09.408Z,10.00
2023-04-30T10:31:09.437Z,13.00
2023-04-30T10:41:09.732Z,12.00
2023-04-30T10:51:09.523Z,18.00
2023-04-30T11:01:09.454Z,12.00
2023-04-30T11:11:09.986Z,11.00
2023-04-30T11:21:09.633Z,11.00
2023-04-30T11:31:09.623Z,14.00
2023-04-30T11:41:09.601Z,14.00
2023-04-30T11:51:09.809Z,10.00
2023-04-30T12:01:09.923Z,11.00
2023-04-30T12:11:09.716Z,12.00
2023-04-30T12:21:09.701Z,15.00
2023-04-30T12:31:09.663Z,23.00
2023-04-30T12:41:09.654Z,9.00
2023-04-30T12:51:09.724Z,6.00
2023-04-30T13:01:09.699Z,9.00
2023-04-30T13:11:11.490Z,9.00
2023-04-30T13:21:09.913Z,7.00
2023-04-30T13:31:09.759Z,8.00
2023-04-30T13:41:09.651Z,7.00
2023-04-30T13:51:11.253Z,7.00
2023-04-30T14:01:09.748Z,7.00
2023-04-30T14:11:09.735Z,8.00
2023-04-30T14:21:09.767Z,7.00
2023-04-30T14:31:09.711Z,5.00
2023-04-30T14:41:09.656Z,9.00
2023-04-30T14:51:09.966Z,5.00
2023-04-30T15:01:09.690Z,7.00
2023-04-30T15:11:10.018Z,4.00
2023-04-30T15:21:09.617Z,8.00
2023-04-30T15:31:10.008Z,8.00
2023-04-30T15:41:10.027Z,8.00
2023-04-30T15:51:09.971Z,21.00
2023-04-30T16:01:09.947Z,7.00
2023-04-30T16:11:10.000Z,4.00
2023-04-30T16:21:10.369Z,5.00
2023-04-30T16:31:10.609Z,8.00
2023-04-30T16:41:10.087Z,7.00
2023-04-30T16:51:10.095Z,8.00
2023-04-30T17:01:09.996Z,8.00
2023-04-30T17:11:11.250Z,5.00
2023-04-30T17:21:10.053Z,8.00
2023-04-30T17:31:10.026Z,7.00
2023-04-30T17:41:10.133Z,8.00
2023-04-30T17:51:10.236Z,6.00
2023-04-30T18:01:10.048Z,8.00
2023-04-30T18:11:10.259Z,11.00
2023-04-30T18:21:10.017Z,9.00
2023-04-30T18:31:10.147Z,11.00
2023-04-30T18:41:10.125Z,6.00
2023-04-30T18:51:10.429Z,7.00
2023-04-30T19:01:10.184Z,7.00
2023-04-30T19:11:10.565Z,10.00
2023-04-30T19:21:10.054Z,8.00
2023-04-30T19:31:10.161Z,8.00
2023-04-30T19:41:10.100Z,10.00
2023-04-30T19:51:10.792Z,12.00
2023-04-30T20:01:10.129Z,14.00
2023-04-30T20:11:10.169Z,11.00
2023-04-30T20:21:10.160Z,15.00
2023-04-30T20:31:10.248Z,13.00
2023-04-30T20:41:10.157Z,12.00
2023-04-30T20:51:10.580Z,13.00
2023-04-30T21:01:10.116Z,14.00
2023-04-30T21:11:10.365Z,15.00
2023-04-30T21:21:10.405Z,14.00
2023-04-30T21:31:10.308Z,12.00
2023-04-30T21:41:10.303Z,16.00
2023-04-30T21:51:11.160Z,12.00
2023-04-30T22:01:10.160Z,30.00
2023-04-30T22:11:10.158Z,17.00
2023-04-30T22:21:10.391Z,21.00
2023-04-30T22:31:10.277Z,15.00
2023-04-30T22:41:10.627Z,15.00
2023-04-30T22:51:10.283Z,22.00
2023-04-30T23:01:18.070Z,19.00
2023-04-30T23:11:10.478Z,18.00
2023-04-30T23:21:10.146Z,20.00
2023-04-30T23:31:11.770Z,14.00
2023-04-30T23:41:12.046Z,15.00
2023-04-30T23:51:12.881Z,14.00
